sensor_id;sensor_type;location;lat;lon;timestamp;P1;P2;P0
46044;PMS7003;31781;54.094;13.428;2022-08-03T00:03:38;1.00;1.00;0.67
46044;PMS7003;31781;54.094;13.428;2022-08-03T00:08:41;3.00;3.00;2.00
46044;PMS7003;31781;54.094;13.428;2022-08-03T00:13:44;1.67;1.67;1.67
46044;PMS7003;31781;54.094;13.428;2022-08-03T00:18:52;1.00;1.00;1.00
46044;PMS7003;31781;54.094;13.428;2022-08-03T00:23:55;1.00;1.00;1.00
46044;PMS7003;31781;54.094;13.428;2022-08-03T00:28:57;2.00;2.00;1.67
46044;PMS7003;31781;54.094;13.428;2022-08-03T00:34:06;0.67;0.67;0.33
46044;PMS7003;31781;54.094;13.428;2022-08-03T00:39:08;2.00;2.00;1.33
46044;PMS7003;31781;54.094;13.428;2022-08-03T00:44:11;1.00;1.00;1.00
46044;PMS7003;31781;54.094;13.428;2022-08-03T00:49:19;0.67;0.67;0.67
46044;PMS7003;31781;54.094;13.428;2022-08-03T00:54:22;1.00;1.00;0.67
46044;PMS7003;31781;54.094;13.428;2022-08-03T00:59:26;0.00;0.00;0.00
46044;PMS7003;31781;54.094;13.428;2022-08-03T01:04:34;1.00;1.00;1.00
46044;PMS7003;31781;54.094;13.428;2022-08-03T01:09:40;1.00;1.00;1.00
46044;PMS7003;31781;54.094;13.428;2022-08-03T01:14:54;2.00;2.00;1.67
46044;PMS7003;31781;54.094;13.428;2022-08-03T01:20:11;1.00;1.00;1.00
46044;PMS7003;31781;54.094;13.428;2022-08-03T01:25:19;1.00;1.00;0.00
46044;PMS7003;31781;54.094;13.428;2022-08-03T01:30:39;2.67;1.33;1.00
46044;PMS7003;31781;54.094;13.428;2022-08-03T01:35:47;1.00;1.00;1.00
46044;PMS7003;31781;54.094;13.428;2022-08-03T01:40:55;1.33;1.33;1.00
46044;PMS7003;31781;54.094;13.428;2022-08-03T01:46:04;1.00;1.00;1.00
46044;PMS7003;31781;54.094;13.428;2022-08-03T01:51:10;1.00;1.00;0.67
46044;PMS7003;31781;54.094;13.428;2022-08-03T01:56:14;1.00;1.00;1.00
46044;PMS7003;31781;54.094;13.428;2022-08-03T02:01:24;2.67;1.00;1.00
46044;PMS7003;31781;54.094;13.428;2022-08-03T02:06:50;2.00;2.00;1.67
46044;PMS7003;31781;54.094;13.428;2022-08-03T02:12:04;1.00;1.00;1.00
46044;PMS7003;31781;54.094;13.428;2022-08-03T02:17:15;3.00;1.33;1.00
46044;PMS7003;31781;54.094;13.428;2022-08-03T02:22:33;2.00;2.00;2.00
46044;PMS7003;31781;54.094;13.428;2022-08-03T02:27:38;1.00;1.00;1.00
46044;PMS7003;31781;54.094;13.428;2022-08-03T02:32:53;1.00;1.00;1.00
46044;PMS7003;31781;54.094;13.428;2022-08-03T02:37:58;3.00;3.00;2.00
46044;PMS7003;31781;54.094;13.428;2022-08-03T02:43:04;1.00;1.00;1.00
46044;PMS7003;31781;54.094;13.428;2022-08-03T02:48:27;1.67;1.67;1.00
46044;PMS7003;31781;54.094;13.428;2022-08-03T02:53:31;1.00;1.00;1.00
46044;PMS7003;31781;54.094;13.428;2022-08-03T02:58:36;3.67;2.00;1.67
46044;PMS7003;31781;54.094;13.428;2022-08-03T03:03:46;2.00;0.33;0.33
46044;PMS7003;31781;54.094;13.428;2022-08-03T03:08:51;3.00;1.33;1.33
46044;PMS7003;31781;54.094;13.428;2022-08-03T03:14:09;0.33;0.33;0.00
46044;PMS7003;31781;54.094;13.428;2022-08-03T03:19:13;1.33;1.00;1.00
46044;PMS7003;31781;54.094;13.428;2022-08-03T03:24:18;1.00;1.00;1.00
46044;PMS7003;31781;54.094;13.428;2022-08-03T03:29:27;6.33;6.33;5.33
46044;PMS7003;31781;54.094;13.428;2022-08-03T03:34:39;2.00;2.00;1.67
46044;PMS7003;31781;54.094;13.428;2022-08-03T03:39:44;2.33;2.00;1.00
46044;PMS7003;31781;54.094;13.428;2022-08-03T03:44:52;2.00;2.00;1.00
46044;PMS7003;31781;54.094;13.428;2022-08-03T03:49:55;3.00;3.00;2.67
46044;PMS7003;31781;54.094;13.428;2022-08-03T03:54:58;2.00;2.00;2.00
46044;PMS7003;31781;54.094;13.428;2022-08-03T04:00:08;2.00;2.00;2.00
46044;PMS7003;31781;54.094;13.428;2022-08-03T04:05:11;1.67;1.67;1.67
46044;PMS7003;31781;54.094;13.428;2022-08-03T04:10:16;3.00;3.00;3.00
46044;PMS7003;31781;54.094;13.428;2022-08-03T04:15:28;2.00;2.00;1.67
46044;PMS7003;31781;54.094;13.428;2022-08-03T04:20:34;5.00;3.00;3.00
46044;PMS7003;31781;54.094;13.428;2022-08-03T04:25:40;2.33;2.33;2.00
46044;PMS7003;31781;54.094;13.428;2022-08-03T04:30:50;2.33;2.33;2.00
46044;PMS7003;31781;54.094;13.428;2022-08-03T04:35:55;2.00;2.00;2.00
46044;PMS7003;31781;54.094;13.428;2022-08-03T04:41:03;2.33;2.00;2.00
46044;PMS7003;31781;54.094;13.428;2022-08-03T04:46:12;3.00;3.00;2.00
46044;PMS7003;31781;54.094;13.428;2022-08-03T04:51:31;1.00;1.00;1.00
46044;PMS7003;31781;54.094;13.428;2022-08-03T04:56:34;3.67;2.00;2.00
46044;PMS7003;31781;54.094;13.428;2022-08-03T05:01:38;4.00;4.00;4.00
46044;PMS7003;31781;54.094;13.428;2022-08-03T05:06:47;2.00;2.00;2.00
46044;PMS7003;31781;54.094;13.428;2022-08-03T05:11:55;2.00;2.00;2.00
46044;PMS7003;31781;54.094;13.428;2022-08-03T05:16:58;3.00;3.00;2.00
46044;PMS7003;31781;54.094;13.428;2022-08-03T05:22:06;4.00;4.00;2.33
46044;PMS7003;31781;54.094;13.428;2022-08-03T05:27:09;3.00;3.00;2.00
46044;PMS7003;31781;54.094;13.428;2022-08-03T05:32:11;0.00;0.00;0.00
46044;PMS7003;31781;54.094;13.428;2022-08-03T05:37:19;2.00;2.00;1.33
46044;PMS7003;31781;54.094;13.428;2022-08-03T05:42:22;3.67;3.67;3.00
46044;PMS7003;31781;54.094;13.428;2022-08-03T05:47:25;4.00;2.33;2.00
46044;PMS7003;31781;54.094;13.428;2022-08-03T05:52:33;3.00;3.00;2.33
46044;PMS7003;31781;54.094;13.428;2022-08-03T05:57:36;3.00;3.00;3.00
46044;PMS7003;31781;54.094;13.428;2022-08-03T06:02:40;3.00;3.00;3.00
46044;PMS7003;31781;54.094;13.428;2022-08-03T06:07:48;4.00;3.00;3.00
46044;PMS7003;31781;54.094;13.428;2022-08-03T06:12:51;2.00;2.00;2.00
46044;PMS7003;31781;54.094;13.428;2022-08-03T06:17:54;2.67;2.67;2.33
46044;PMS7003;31781;54.094;13.428;2022-08-03T06:23:07;3.00;3.00;3.00
46044;PMS7003;31781;54.094;13.428;2022-08-03T06:28:17;3.00;3.00;3.00
46044;PMS7003;31781;54.094;13.428;2022-08-03T06:33:40;3.33;3.33;3.00
46044;PMS7003;31781;54.094;13.428;2022-08-03T06:39:08;3.00;3.00;3.00
46044;PMS7003;31781;54.094;13.428;2022-08-03T06:44:11;5.67;3.00;3.00
46044;PMS7003;31781;54.094;13.428;2022-08-03T06:49:30;5.00;5.00;3.00
46044;PMS7003;31781;54.094;13.428;2022-08-03T06:54:33;2.00;2.00;1.33
46044;PMS7003;31781;54.094;13.428;2022-08-03T06:59:37;3.00;3.00;2.33
46044;PMS7003;31781;54.094;13.428;2022-08-03T07:05:05;3.00;3.00;3.00
46044;PMS7003;31781;54.094;13.428;2022-08-03T07:10:09;3.00;3.00;3.00
46044;PMS7003;31781;54.094;13.428;2022-08-03T07:20:31;3.33;3.33;2.67
46044;PMS7003;31781;54.094;13.428;2022-08-03T07:25:34;4.00;4.00;3.00
46044;PMS7003;31781;54.094;13.428;2022-08-03T07:30:37;4.33;4.33;3.00
46044;PMS7003;31781;54.094;13.428;2022-08-03T07:35:45;3.25;3.25;3.00
46044;PMS7003;31781;54.094;13.428;2022-08-03T07:40:48;3.00;3.00;3.00
46044;PMS7003;31781;54.094;13.428;2022-08-03T07:45:50;3.50;3.50;3.00
46044;PMS7003;31781;54.094;13.428;2022-08-03T07:50:58;3.00;3.00;3.00
46044;PMS7003;31781;54.094;13.428;2022-08-03T07:56:01;3.25;3.25;2.75
46044;PMS7003;31781;54.094;13.428;2022-08-03T08:01:11;3.50;3.50;3.00
46044;PMS7003;31781;54.094;13.428;2022-08-03T08:06:20;3.00;3.00;3.00
46044;PMS7003;31781;54.094;13.428;2022-08-03T08:11:23;3.75;3.00;3.00
46044;PMS7003;31781;54.094;13.428;2022-08-03T08:16:26;1.50;1.50;1.50
46044;PMS7003;31781;54.094;13.428;2022-08-03T08:21:34;3.00;3.00;2.00
46044;PMS7003;31781;54.094;13.428;2022-08-03T08:26:57;3.50;3.50;3.50
46044;PMS7003;31781;54.094;13.428;2022-08-03T08:31:59;2.75;2.75;2.25
46044;PMS7003;31781;54.094;13.428;2022-08-03T08:37:07;3.25;2.50;2.25
46044;PMS7003;31781;54.094;13.428;2022-08-03T08:42:10;2.50;2.50;2.50
46044;PMS7003;31781;54.094;13.428;2022-08-03T08:47:13;3.00;3.00;2.25
46044;PMS7003;31781;54.094;13.428;2022-08-03T08:52:32;3.00;3.00;2.25
46044;PMS7003;31781;54.094;13.428;2022-08-03T08:57:37;4.25;4.25;4.00
46044;PMS7003;31781;54.094;13.428;2022-08-03T09:02:44;4.00;4.00;3.00
46044;PMS7003;31781;54.094;13.428;2022-08-03T09:07:52;3.75;3.75;3.50
46044;PMS7003;31781;54.094;13.428;2022-08-03T09:12:55;2.00;2.00;2.00
46044;PMS7003;31781;54.094;13.428;2022-08-03T09:18:22;5.00;3.00;2.00
46044;PMS7003;31781;54.094;13.428;2022-08-03T09:23:42;4.50;4.50;4.00
46044;PMS7003;31781;54.094;13.428;2022-08-03T09:29:03;3.00;3.00;3.00
46044;PMS7003;31781;54.094;13.428;2022-08-03T09:34:23;3.00;3.00;3.00
46044;PMS7003;31781;54.094;13.428;2022-08-03T09:39:27;2.50;2.50;2.00
46044;PMS7003;31781;54.094;13.428;2022-08-03T09:44:43;2.00;2.00;2.00
46044;PMS7003;31781;54.094;13.428;2022-08-03T09:50:04;3.75;3.75;3.00
46044;PMS7003;31781;54.094;13.428;2022-08-03T09:55:08;2.75;2.75;2.00
46044;PMS7003;31781;54.094;13.428;2022-08-03T10:00:32;2.25;2.25;2.00
46044;PMS7003;31781;54.094;13.428;2022-08-03T10:05:59;4.25;4.25;3.00
46044;PMS7003;31781;54.094;13.428;2022-08-03T10:11:28;3.00;3.00;2.75
46044;PMS7003;31781;54.094;13.428;2022-08-03T10:16:32;3.75;3.75;3.00
46044;PMS7003;31781;54.094;13.428;2022-08-03T10:21:44;3.00;3.00;2.00
46044;PMS7003;31781;54.094;13.428;2022-08-03T10:32:12;2.00;2.00;2.00
46044;PMS7003;31781;54.094;13.428;2022-08-03T10:37:20;1.75;1.75;1.75
46044;PMS7003;31781;54.094;13.428;2022-08-03T10:42:27;1.00;1.00;1.00
46044;PMS7003;31781;54.094;13.428;2022-08-03T10:47:35;1.00;1.00;0.50
46044;PMS7003;31781;54.094;13.428;2022-08-03T10:52:52;2.00;2.00;2.00
46044;PMS7003;31781;54.094;13.428;2022-08-03T10:57:55;2.00;2.00;1.75
46044;PMS7003;31781;54.094;13.428;2022-08-03T11:03:14;1.75;1.75;1.75
46044;PMS7003;31781;54.094;13.428;2022-08-03T11:08:22;4.00;3.00;2.50
46044;PMS7003;31781;54.094;13.428;2022-08-03T11:13:29;2.00;2.00;2.00
46044;PMS7003;31781;54.094;13.428;2022-08-03T11:18:38;1.75;1.75;1.00
46044;PMS7003;31781;54.094;13.428;2022-08-03T11:23:57;1.75;1.75;1.75
46044;PMS7003;31781;54.094;13.428;2022-08-03T11:34:36;3.00;3.00;2.00
46044;PMS7003;31781;54.094;13.428;2022-08-03T11:40:08;2.25;2.25;2.25
46044;PMS7003;31781;54.094;13.428;2022-08-03T11:45:48;0.00;0.00;0.00
46044;PMS7003;31781;54.094;13.428;2022-08-03T11:50:58;1.50;1.50;1.50
46044;PMS7003;31781;54.094;13.428;2022-08-03T11:56:06;1.50;1.50;1.25
46044;PMS7003;31781;54.094;13.428;2022-08-03T12:01:13;3.00;3.00;3.00
46044;PMS7003;31781;54.094;13.428;2022-08-03T12:06:21;3.50;2.25;2.00
46044;PMS7003;31781;54.094;13.428;2022-08-03T12:11:29;3.00;3.00;2.25
46044;PMS7003;31781;54.094;13.428;2022-08-03T12:16:32;2.75;2.75;2.50
46044;PMS7003;31781;54.094;13.428;2022-08-03T12:21:38;2.00;2.00;1.00
46044;PMS7003;31781;54.094;13.428;2022-08-03T12:27:03;2.00;2.00;2.00
46044;PMS7003;31781;54.094;13.428;2022-08-03T12:32:22;0.00;0.00;0.00
46044;PMS7003;31781;54.094;13.428;2022-08-03T12:42:43;1.75;1.75;1.25
46044;PMS7003;31781;54.094;13.428;2022-08-03T12:47:50;2.00;2.00;2.00
46044;PMS7003;31781;54.094;13.428;2022-08-03T12:52:55;2.25;2.25;2.00
46044;PMS7003;31781;54.094;13.428;2022-08-03T12:58:04;3.00;3.00;2.50
46044;PMS7003;31781;54.094;13.428;2022-08-03T13:03:07;4.50;2.00;2.00
46044;PMS7003;31781;54.094;13.428;2022-08-03T13:08:30;2.75;2.25;2.25
46044;PMS7003;31781;54.094;13.428;2022-08-03T13:13:44;2.00;2.00;2.00
46044;PMS7003;31781;54.094;13.428;2022-08-03T13:19:02;2.50;2.00;2.00
46044;PMS7003;31781;54.094;13.428;2022-08-03T13:24:05;1.25;1.25;1.00
46044;PMS7003;31781;54.094;13.428;2022-08-03T13:29:08;0.00;0.00;0.00
46044;PMS7003;31781;54.094;13.428;2022-08-03T13:34:16;2.00;2.00;2.00
46044;PMS7003;31781;54.094;13.428;2022-08-03T13:39:23;2.50;2.50;2.00
46044;PMS7003;31781;54.094;13.428;2022-08-03T13:44:33;3.25;2.00;2.00
46044;PMS7003;31781;54.094;13.428;2022-08-03T13:49:52;2.00;2.00;1.50
46044;PMS7003;31781;54.094;13.428;2022-08-03T13:55:01;3.00;3.00;2.25
46044;PMS7003;31781;54.094;13.428;2022-08-03T14:00:06;2.75;2.75;2.00
46044;PMS7003;31781;54.094;13.428;2022-08-03T14:05:15;2.00;2.00;1.75
46044;PMS7003;31781;54.094;13.428;2022-08-03T14:10:18;1.75;1.75;1.75
46044;PMS7003;31781;54.094;13.428;2022-08-03T14:15:20;3.00;3.00;2.75
46044;PMS7003;31781;54.094;13.428;2022-08-03T14:20:39;2.25;2.25;2.00
46044;PMS7003;31781;54.094;13.428;2022-08-03T14:25:51;2.75;2.75;2.00
46044;PMS7003;31781;54.094;13.428;2022-08-03T14:30:54;4.00;2.00;2.00
46044;PMS7003;31781;54.094;13.428;2022-08-03T14:36:03;2.75;2.75;2.00
46044;PMS7003;31781;54.094;13.428;2022-08-03T14:41:06;2.00;2.00;2.00
46044;PMS7003;31781;54.094;13.428;2022-08-03T14:46:20;1.75;1.75;1.25
46044;PMS7003;31781;54.094;13.428;2022-08-03T14:51:28;3.00;3.00;2.00
46044;PMS7003;31781;54.094;13.428;2022-08-03T14:56:32;2.00;2.00;2.00
46044;PMS7003;31781;54.094;13.428;2022-08-03T15:01:34;2.00;2.00;2.00
46044;PMS7003;31781;54.094;13.428;2022-08-03T15:07:02;2.00;2.00;2.00
46044;PMS7003;31781;54.094;13.428;2022-08-03T15:12:05;3.50;2.25;2.25
46044;PMS7003;31781;54.094;13.428;2022-08-03T15:17:08;2.25;2.25;2.00
46044;PMS7003;31781;54.094;13.428;2022-08-03T15:22:17;2.25;2.25;2.00
46044;PMS7003;31781;54.094;13.428;2022-08-03T15:27:35;2.00;2.00;2.00
46044;PMS7003;31781;54.094;13.428;2022-08-03T15:32:58;2.00;2.00;2.00
46044;PMS7003;31781;54.094;13.428;2022-08-03T15:38:01;1.00;1.00;1.00
46044;PMS7003;31781;54.094;13.428;2022-08-03T15:43:15;2.00;2.00;2.00
46044;PMS7003;31781;54.094;13.428;2022-08-03T15:48:17;2.25;2.25;2.00
46044;PMS7003;31781;54.094;13.428;2022-08-03T15:53:26;4.25;3.00;2.00
46044;PMS7003;31781;54.094;13.428;2022-08-03T16:03:48;2.00;2.00;2.00
46044;PMS7003;31781;54.094;13.428;2022-08-03T16:08:50;4.00;4.00;3.25
46044;PMS7003;31781;54.094;13.428;2022-08-03T16:13:53;1.00;1.00;1.00
46044;PMS7003;31781;54.094;13.428;2022-08-03T16:19:21;3.00;3.00;2.75
46044;PMS7003;31781;54.094;13.428;2022-08-03T16:24:24;1.75;1.75;1.50
46044;PMS7003;31781;54.094;13.428;2022-08-03T16:29:28;1.00;1.00;1.00
46044;PMS7003;31781;54.094;13.428;2022-08-03T16:34:36;1.75;1.75;1.75
46044;PMS7003;31781;54.094;13.428;2022-08-03T16:39:40;2.00;2.00;1.50
46044;PMS7003;31781;54.094;13.428;2022-08-03T16:44:43;0.00;0.00;0.00
46044;PMS7003;31781;54.094;13.428;2022-08-03T16:49:51;2.25;2.00;1.50
46044;PMS7003;31781;54.094;13.428;2022-08-03T16:54:57;2.00;2.00;2.00
46044;PMS7003;31781;54.094;13.428;2022-08-03T17:00:00;2.00;2.00;1.75
46044;PMS7003;31781;54.094;13.428;2022-08-03T17:05:10;3.25;2.00;2.00
46044;PMS7003;31781;54.094;13.428;2022-08-03T17:10:14;4.00;4.00;3.00
46044;PMS7003;31781;54.094;13.428;2022-08-03T17:15:22;4.50;4.25;3.75
46044;PMS7003;31781;54.094;13.428;2022-08-03T17:20:50;2.00;2.00;1.50
46044;PMS7003;31781;54.094;13.428;2022-08-03T17:25:55;2.25;2.25;2.25
46044;PMS7003;31781;54.094;13.428;2022-08-03T17:31:04;4.50;4.50;3.50
46044;PMS7003;31781;54.094;13.428;2022-08-03T17:36:34;9.00;7.75;7.00
46044;PMS7003;31781;54.094;13.428;2022-08-03T17:41:57;3.00;3.00;2.75
46044;PMS7003;31781;54.094;13.428;2022-08-03T17:47:01;6.00;6.00;5.00
46044;PMS7003;31781;54.094;13.428;2022-08-03T17:52:14;5.00;5.00;4.25
46044;PMS7003;31781;54.094;13.428;2022-08-03T17:57:25;5.00;5.00;5.00
46044;PMS7003;31781;54.094;13.428;2022-08-03T18:02:53;5.25;4.25;4.00
46044;PMS7003;31781;54.094;13.428;2022-08-03T18:08:11;4.00;4.00;3.00
46044;PMS7003;31781;54.094;13.428;2022-08-03T18:13:27;7.00;7.00;6.00
46044;PMS7003;31781;54.094;13.428;2022-08-03T18:18:33;5.50;5.50;4.50
46044;PMS7003;31781;54.094;13.428;2022-08-03T18:23:44;4.50;3.00;2.00
46044;PMS7003;31781;54.094;13.428;2022-08-03T18:28:51;5.50;5.00;4.00
46044;PMS7003;31781;54.094;13.428;2022-08-03T18:33:55;3.00;3.00;2.25
46044;PMS7003;31781;54.094;13.428;2022-08-03T18:39:24;4.50;4.50;3.75
46044;PMS7003;31781;54.094;13.428;2022-08-03T18:44:29;5.25;5.25;5.00
46044;PMS7003;31781;54.094;13.428;2022-08-03T18:49:56;3.00;3.00;2.50
46044;PMS7003;31781;54.094;13.428;2022-08-03T18:55:15;6.00;4.75;4.00
46044;PMS7003;31781;54.094;13.428;2022-08-03T19:00:21;3.50;3.50;3.00
46044;PMS7003;31781;54.094;13.428;2022-08-03T19:05:47;4.00;4.00;3.75
46044;PMS7003;31781;54.094;13.428;2022-08-03T19:11:14;5.00;5.00;4.00
46044;PMS7003;31781;54.094;13.428;2022-08-03T19:16:30;5.75;5.75;5.00
46044;PMS7003;31781;54.094;13.428;2022-08-03T19:21:39;5.00;5.00;4.50
46044;PMS7003;31781;54.094;13.428;2022-08-03T19:26:47;4.75;4.75;4.00
46044;PMS7003;31781;54.094;13.428;2022-08-03T19:37:13;5.00;5.00;4.25
46044;PMS7003;31781;54.094;13.428;2022-08-03T19:42:18;5.33;5.33;5.00
46044;PMS7003;31781;54.094;13.428;2022-08-03T19:47:31;5.00;5.00;5.00
46044;PMS7003;31781;54.094;13.428;2022-08-03T19:52:51;5.00;5.00;4.33
46044;PMS7003;31781;54.094;13.428;2022-08-03T19:57:55;6.00;6.00;5.00
46044;PMS7003;31781;54.094;13.428;2022-08-03T20:02:59;4.00;4.00;4.00
46044;PMS7003;31781;54.094;13.428;2022-08-03T20:08:07;6.00;6.00;6.00
46044;PMS7003;31781;54.094;13.428;2022-08-03T20:13:11;4.67;4.67;4.00
46044;PMS7003;31781;54.094;13.428;2022-08-03T20:18:19;6.00;4.33;4.00
46044;PMS7003;31781;54.094;13.428;2022-08-03T20:23:27;4.00;4.00;4.00
46044;PMS7003;31781;54.094;13.428;2022-08-03T20:28:38;3.33;3.33;2.33
46044;PMS7003;31781;54.094;13.428;2022-08-03T20:33:50;6.33;6.33;5.33
46044;PMS7003;31781;54.094;13.428;2022-08-03T20:38:58;8.67;8.00;6.33
46044;PMS7003;31781;54.094;13.428;2022-08-03T20:44:08;8.67;8.67;7.67
46044;PMS7003;31781;54.094;13.428;2022-08-03T20:49:10;10.67;9.00;7.67
46044;PMS7003;31781;54.094;13.428;2022-08-03T20:54:19;10.67;10.67;9.00
46044;PMS7003;31781;54.094;13.428;2022-08-03T20:59:38;10.00;10.00;7.00
46044;PMS7003;31781;54.094;13.428;2022-08-03T21:04:51;9.33;8.67;7.33
46044;PMS7003;31781;54.094;13.428;2022-08-03T21:09:54;6.00;5.00;5.00
46044;PMS7003;31781;54.094;13.428;2022-08-03T21:15:06;8.00;8.00;7.00
46044;PMS7003;31781;54.094;13.428;2022-08-03T21:20:31;7.67;7.67;6.00
46044;PMS7003;31781;54.094;13.428;2022-08-03T21:25:35;4.33;4.33;3.00
46044;PMS7003;31781;54.094;13.428;2022-08-03T21:30:44;7.33;7.33;6.00
46044;PMS7003;31781;54.094;13.428;2022-08-03T21:35:48;6.33;6.33;4.67
46044;PMS7003;31781;54.094;13.428;2022-08-03T21:41:06;8.33;7.00;6.00
46044;PMS7003;31781;54.094;13.428;2022-08-03T21:46:25;9.00;8.00;7.00
46044;PMS7003;31781;54.094;13.428;2022-08-03T21:51:44;5.67;5.67;5.67
46044;PMS7003;31781;54.094;13.428;2022-08-03T21:56:50;6.67;6.67;5.33
46044;PMS7003;31781;54.094;13.428;2022-08-03T22:01:56;6.00;6.00;5.33
46044;PMS7003;31781;54.094;13.428;2022-08-03T22:07:05;6.00;6.00;5.00
46044;PMS7003;31781;54.094;13.428;2022-08-03T22:12:08;9.00;8.00;7.00
46044;PMS7003;31781;54.094;13.428;2022-08-03T22:17:13;8.00;7.00;6.00
46044;PMS7003;31781;54.094;13.428;2022-08-03T22:22:43;4.00;4.00;3.33
46044;PMS7003;31781;54.094;13.428;2022-08-03T22:27:56;6.33;6.33;5.33
46044;PMS7003;31781;54.094;13.428;2022-08-03T22:33:02;5.00;5.00;4.33
46044;PMS7003;31781;54.094;13.428;2022-08-03T22:38:35;6.67;6.00;5.00
46044;PMS7003;31781;54.094;13.428;2022-08-03T22:43:55;4.33;4.33;4.00
46044;PMS7003;31781;54.094;13.428;2022-08-03T22:49:04;6.00;6.00;4.00
46044;PMS7003;31781;54.094;13.428;2022-08-03T22:54:09;7.00;7.00;5.67
46044;PMS7003;31781;54.094;13.428;2022-08-03T22:59:18;5.67;4.67;4.00
46044;PMS7003;31781;54.094;13.428;2022-08-03T23:04:40;6.33;6.33;5.00
46044;PMS7003;31781;54.094;13.428;2022-08-03T23:09:46;7.00;7.00;5.00
46044;PMS7003;31781;54.094;13.428;2022-08-03T23:15:05;7.67;6.00;5.00
46044;PMS7003;31781;54.094;13.428;2022-08-03T23:20:10;7.67;7.67;6.33
46044;PMS7003;31781;54.094;13.428;2022-08-03T23:25:14;8.00;8.00;7.67
46044;PMS7003;31781;54.094;13.428;2022-08-03T23:30:23;10.00;10.00;8.00
46044;PMS7003;31781;54.094;13.428;2022-08-03T23:35:43;7.67;7.67;6.67
46044;PMS7003;31781;54.094;13.428;2022-08-03T23:41:06;6.00;6.00;5.33
46044;PMS7003;31781;54.094;13.428;2022-08-03T23:46:10;7.00;7.00;7.00
46044;PMS7003;31781;54.094;13.428;2022-08-03T23:51:25;10.67;9.67;8.33
46044;PMS7003;31781;54.094;13.428;2022-08-03T23:56:39;10.33;10.33;9.00
